sensor_id;sensor_type;location;lat;lon;timestamp;pressure;altitude;pressure_sealevel;temperature;humidity
37132;BME280;23035;50.032;21.978;2023-04-01T00:02:17;66273.63;;;10.52;100.00
37132;BME280;23035;50.032;21.978;2023-04-01T00:07:23;66251.56;;;10.28;100.00
37132;BME280;23035;50.032;21.978;2023-04-01T00:12:32;66233.50;;;10.16;100.00
37132;BME280;23035;50.032;21.978;2023-04-01T00:17:37;66212.66;;;9.99;100.00
37132;BME280;23035;50.032;21.978;2023-04-01T00:22:42;66169.97;;;9.48;100.00
37132;BME280;23035;50.032;21.978;2023-04-01T00:27:46;66190.50;;;9.73;100.00
37132;BME280;23035;50.032;21.978;2023-04-01T00:32:52;66196.34;;;9.76;100.00
37132;BME280;23035;50.032;21.978;2023-04-01T00:37:57;66181.78;;;9.60;100.00
37132;BME280;23035;50.032;21.978;2023-04-01T00:43:02;66171.66;;;9.53;100.00
37132;BME280;23035;50.032;21.978;2023-04-01T00:48:09;66176.50;;;9.57;100.00
37132;BME280;23035;50.032;21.978;2023-04-01T00:53:16;66148.72;;;9.33;100.00
37132;BME280;23035;50.032;21.978;2023-04-01T00:58:24;66222.06;;;10.00;100.00
37132;BME280;23035;50.032;21.978;2023-04-01T01:03:30;66207.50;;;9.84;100.00
37132;BME280;23035;50.032;21.978;2023-04-01T01:08:44;66160.41;;;9.42;100.00
37132;BME280;23035;50.032;21.978;2023-04-01T01:13:56;66199.72;;;9.84;100.00
37132;BME280;23035;50.032;21.978;2023-04-01T01:19:09;66178.19;;;9.61;100.00
37132;BME280;23035;50.032;21.978;2023-04-01T01:24:44;66183.47;;;9.64;100.00
37132;BME280;23035;50.032;21.978;2023-04-01T01:30:22;66157.22;;;9.39;100.00
37132;BME280;23035;50.032;21.978;2023-04-01T01:35:33;66138.53;;;9.24;100.00
37132;BME280;23035;50.032;21.978;2023-04-01T01:40:46;66299.19;;;10.71;100.00
37132;BME280;23035;50.032;21.978;2023-04-01T01:45:55;66149.34;;;9.36;100.00
37132;BME280;23035;50.032;21.978;2023-04-01T01:51:05;66226.97;;;10.07;100.00
37132;BME280;23035;50.032;21.978;2023-04-01T01:56:10;66189.44;;;9.72;100.00
37132;BME280;23035;50.032;21.978;2023-04-01T02:01:21;66195.78;;;9.75;100.00
37132;BME280;23035;50.032;21.978;2023-04-01T02:06:34;66119.53;;;8.98;100.00
37132;BME280;23035;50.032;21.978;2023-04-01T02:11:44;66135.69;;;9.16;100.00
37132;BME280;23035;50.032;21.978;2023-04-01T02:16:54;66206.59;;;9.88;100.00
37132;BME280;23035;50.032;21.978;2023-04-01T02:22:03;66101.50;;;8.86;100.00
37132;BME280;23035;50.032;21.978;2023-04-01T02:27:09;66105.88;;;8.93;100.00
37132;BME280;23035;50.032;21.978;2023-04-01T02:32:14;66112.28;;;8.99;100.00
37132;BME280;23035;50.032;21.978;2023-04-01T02:37:21;66167.00;;;9.53;100.00
37132;BME280;23035;50.032;21.978;2023-04-01T02:42:27;66181.84;;;9.62;100.00
37132;BME280;23035;50.032;21.978;2023-04-01T02:47:32;66222.06;;;10.00;100.00
37132;BME280;23035;50.032;21.978;2023-04-01T02:52:38;66178.03;;;9.56;100.00
37132;BME280;23035;50.032;21.978;2023-04-01T02:57:42;66186.22;;;9.69;100.00
37132;BME280;23035;50.032;21.978;2023-04-01T03:02:47;66138.00;;;9.23;100.00
37132;BME280;23035;50.032;21.978;2023-04-01T03:07:53;66190.63;;;9.75;100.00
37132;BME280;23035;50.032;21.978;2023-04-01T03:12:58;66198.94;;;9.76;100.00
37132;BME280;23035;50.032;21.978;2023-04-01T03:18:03;66171.31;;;9.57;100.00
37132;BME280;23035;50.032;21.978;2023-04-01T03:23:08;66185.63;;;9.66;100.00
37132;BME280;23035;50.032;21.978;2023-04-01T03:28:14;66157.75;;;9.39;100.00
37132;BME280;23035;50.032;21.978;2023-04-01T03:33:18;66150.22;;;9.32;100.00
37132;BME280;23035;50.032;21.978;2023-04-01T03:38:24;66116.41;;;8.98;100.00
37132;BME280;23035;50.032;21.978;2023-04-01T03:43:28;66236.00;;;10.14;100.00
37132;BME280;23035;50.032;21.978;2023-04-01T03:48:32;66167.38;;;9.48;100.00
37132;BME280;23035;50.032;21.978;2023-04-01T03:53:38;66200.16;;;9.82;100.00
37132;BME280;23035;50.032;21.978;2023-04-01T03:58:42;66138.00;;;9.23;100.00
37132;BME280;23035;50.032;21.978;2023-04-01T04:03:48;66065.63;;;8.52;100.00
37132;BME280;23035;50.032;21.978;2023-04-01T04:08:54;66070.53;;;8.59;100.00
37132;BME280;23035;50.032;21.978;2023-04-01T04:13:59;66089.81;;;8.77;100.00
37132;BME280;23035;50.032;21.978;2023-04-01T04:19:03;66068.38;;;8.57;100.00
37132;BME280;23035;50.032;21.978;2023-04-01T04:24:10;66124.63;;;9.10;100.00
37132;BME280;23035;50.032;21.978;2023-04-01T04:29:32;66204.91;;;9.84;100.00
37132;BME280;23035;50.032;21.978;2023-04-01T04:34:38;66189.00;;;9.74;100.00
37132;BME280;23035;50.032;21.978;2023-04-01T04:39:44;66133.19;;;9.18;100.00
37132;BME280;23035;50.032;21.978;2023-04-01T04:44:49;66141.84;;;9.29;100.00
37132;BME280;23035;50.032;21.978;2023-04-01T04:49:53;66141.13;;;9.24;100.00
37132;BME280;23035;50.032;21.978;2023-04-01T04:54:59;66085.88;;;8.69;100.00
37132;BME280;23035;50.032;21.978;2023-04-01T05:00:03;66164.88;;;9.51;100.00
37132;BME280;23035;50.032;21.978;2023-04-01T05:05:22;66194.19;;;9.74;100.00
37132;BME280;23035;50.032;21.978;2023-04-01T05:10:27;66047.50;;;8.37;100.00
37132;BME280;23035;50.032;21.978;2023-04-01T05:15:32;66055.53;;;8.45;100.00
37132;BME280;23035;50.032;21.978;2023-04-01T05:20:37;66101.50;;;8.86;100.00
37132;BME280;23035;50.032;21.978;2023-04-01T05:25:43;66089.63;;;8.72;100.00
37132;BME280;23035;50.032;21.978;2023-04-01T05:30:48;66129.34;;;9.12;100.00
37132;BME280;23035;50.032;21.978;2023-04-01T05:36:06;66122.47;;;9.08;100.00
37132;BME280;23035;50.032;21.978;2023-04-01T05:41:12;66102.03;;;8.86;100.00
37132;BME280;23035;50.032;21.978;2023-04-01T05:46:19;66159.00;;;9.45;100.00
37132;BME280;23035;50.032;21.978;2023-04-01T05:51:30;66218.03;;;10.04;100.00
37132;BME280;23035;50.032;21.978;2023-04-01T05:56:36;66237.16;;;10.17;100.00
37132;BME280;23035;50.032;21.978;2023-04-01T06:01:40;66202.22;;;9.82;100.00
37132;BME280;23035;50.032;21.978;2023-04-01T06:06:45;66205.44;;;9.85;100.00
37132;BME280;23035;50.032;21.978;2023-04-01T06:17:43;66253.72;;;10.30;100.00
37132;BME280;23035;50.032;21.978;2023-04-01T06:23:05;66354.03;;;11.26;100.00
37132;BME280;23035;50.032;21.978;2023-04-01T06:28:37;66323.50;;;10.99;100.00
37132;BME280;23035;50.032;21.978;2023-04-01T06:33:59;66334.25;;;11.09;100.00
37132;BME280;23035;50.032;21.978;2023-04-01T06:39:48;66301.06;;;10.80;100.00
37132;BME280;23035;50.032;21.978;2023-04-01T06:45:07;66332.63;;;11.08;100.00
37132;BME280;23035;50.032;21.978;2023-04-01T06:50:41;66287.59;;;10.65;100.00
37132;BME280;23035;50.032;21.978;2023-04-01T06:56:09;66343.28;;;11.15;100.00
37132;BME280;23035;50.032;21.978;2023-04-01T07:01:32;66457.66;;;12.24;100.00
37132;BME280;23035;50.032;21.978;2023-04-01T07:06:42;66368.59;;;11.42;100.00
37132;BME280;23035;50.032;21.978;2023-04-01T07:11:50;66319.31;;;10.98;100.00
37132;BME280;23035;50.032;21.978;2023-04-01T07:17:20;66342.22;;;11.14;100.00
37132;BME280;23035;50.032;21.978;2023-04-01T07:22:30;66405.53;;;11.74;100.00
37132;BME280;23035;50.032;21.978;2023-04-01T07:27:50;66356.69;;;11.28;100.00
37132;BME280;23035;50.032;21.978;2023-04-01T07:33:03;66427.66;;;11.98;100.00
37132;BME280;23035;50.032;21.978;2023-04-01T07:38:17;66354.47;;;11.24;100.00
37132;BME280;23035;50.032;21.978;2023-04-01T07:43:39;66332.56;;;11.05;100.00
37132;BME280;23035;50.032;21.978;2023-04-01T07:49:08;66450.22;;;12.19;100.00
37132;BME280;23035;50.032;21.978;2023-04-01T07:54:19;66434.47;;;11.99;100.00
37132;BME280;23035;50.032;21.978;2023-04-01T07:59:29;66374.50;;;11.47;100.00
37132;BME280;23035;50.032;21.978;2023-04-01T08:04:58;66411.09;;;11.85;100.00
37132;BME280;23035;50.032;21.978;2023-04-01T08:10:12;66389.97;;;11.60;100.00
37132;BME280;23035;50.032;21.978;2023-04-01T08:15:45;66420.59;;;11.89;100.00
37132;BME280;23035;50.032;21.978;2023-04-01T08:21:12;66403.47;;;11.75;100.00
37132;BME280;23035;50.032;21.978;2023-04-01T08:26:26;66408.22;;;11.77;100.00
37132;BME280;23035;50.032;21.978;2023-04-01T08:31:37;66425.97;;;11.94;100.00
37132;BME280;23035;50.032;21.978;2023-04-01T08:36:51;66446.44;;;12.16;100.00
37132;BME280;23035;50.032;21.978;2023-04-01T08:47:56;66394.81;;;11.64;100.00
37132;BME280;23035;50.032;21.978;2023-04-01T08:53:11;66416.91;;;11.88;100.00
37132;BME280;23035;50.032;21.978;2023-04-01T08:58:59;66469.47;;;12.35;100.00
37132;BME280;23035;50.032;21.978;2023-04-01T09:04:21;66546.28;;;13.08;100.00
37132;BME280;23035;50.032;21.978;2023-04-01T09:21:25;66451.72;;;12.18;100.00
37132;BME280;23035;50.032;21.978;2023-04-01T09:26:48;66589.84;;;13.49;100.00
37132;BME280;23035;50.032;21.978;2023-04-01T09:32:13;66493.34;;;12.65;100.00
37132;BME280;23035;50.032;21.978;2023-04-01T09:37:35;66507.31;;;12.78;100.00
37132;BME280;23035;50.032;21.978;2023-04-01T09:43:00;66478.66;;;12.46;100.00
37132;BME280;23035;50.032;21.978;2023-04-01T09:48:22;66453.44;;;12.22;100.00
37132;BME280;23035;50.032;21.978;2023-04-01T09:53:40;66579.72;;;13.42;100.00
37132;BME280;23035;50.032;21.978;2023-04-01T09:59:20;66671.66;;;14.29;100.00
37132;BME280;23035;50.032;21.978;2023-04-01T10:05:08;66516.19;;;12.79;100.00
37132;BME280;23035;50.032;21.978;2023-04-01T10:10:46;66665.72;;;14.23;100.00
37132;BME280;23035;50.032;21.978;2023-04-01T10:16:41;66740.44;;;14.91;100.00
37132;BME280;23035;50.032;21.978;2023-04-01T10:22:23;66695.88;;;14.52;100.00
37132;BME280;23035;50.032;21.978;2023-04-01T10:27:52;66543.75;;;13.10;100.00
37132;BME280;23035;50.032;21.978;2023-04-01T10:45:34;66640.91;;;13.97;100.00
37132;BME280;23035;50.032;21.978;2023-04-01T10:51:04;66649.13;;;14.10;100.00
37132;BME280;23035;50.032;21.978;2023-04-01T10:56:40;66639.38;;;13.98;100.00
37132;BME280;23035;50.032;21.978;2023-04-01T11:14:33;66615.81;;;13.78;95.68
37132;BME280;23035;50.032;21.978;2023-04-01T11:25:55;66651.69;;;14.07;100.00
37132;BME280;23035;50.032;21.978;2023-04-01T11:31:36;66699.66;;;14.55;96.53
37132;BME280;23035;50.032;21.978;2023-04-01T11:36:51;66649.50;;;14.05;94.68
37132;BME280;23035;50.032;21.978;2023-04-01T11:42:14;66663.56;;;14.21;96.76
37132;BME280;23035;50.032;21.978;2023-04-01T11:48:02;66829.97;;;15.81;85.05
37132;BME280;23035;50.032;21.978;2023-04-01T11:53:16;66881.59;;;16.27;85.68
37132;BME280;23035;50.032;21.978;2023-04-01T12:04:04;66652.28;;;14.11;100.00
37132;BME280;23035;50.032;21.978;2023-04-01T12:09:20;66671.09;;;14.28;100.00
37132;BME280;23035;50.032;21.978;2023-04-01T12:14:33;66693.19;;;14.49;100.00
37132;BME280;23035;50.032;21.978;2023-04-01T12:19:48;66728.22;;;14.85;100.00
37132;BME280;23035;50.032;21.978;2023-04-01T12:25:00;66771.19;;;15.23;95.53
37132;BME280;23035;50.032;21.978;2023-04-01T12:30:24;66753.97;;;15.07;95.07
37132;BME280;23035;50.032;21.978;2023-04-01T12:35:39;66703.41;;;14.59;100.00
37132;BME280;23035;50.032;21.978;2023-04-01T12:41:01;66890.16;;;16.33;88.64
37132;BME280;23035;50.032;21.978;2023-04-01T12:46:13;66984.47;;;17.22;79.08
37132;BME280;23035;50.032;21.978;2023-04-01T12:51:29;66809.41;;;15.59;86.07
37132;BME280;23035;50.032;21.978;2023-04-01T12:56:44;66817.44;;;15.64;88.55
37132;BME280;23035;50.032;21.978;2023-04-01T13:02:00;66695.94;;;14.54;94.95
37132;BME280;23035;50.032;21.978;2023-04-01T13:13:02;66634.47;;;13.91;100.00
37132;BME280;23035;50.032;21.978;2023-04-01T13:18:18;66628.47;;;13.83;100.00
37132;BME280;23035;50.032;21.978;2023-04-01T13:23:42;66792.81;;;15.46;95.24
37132;BME280;23035;50.032;21.978;2023-04-01T13:28:52;66796.44;;;15.44;94.26
37132;BME280;23035;50.032;21.978;2023-04-01T13:34:09;66682.94;;;14.40;100.00
37132;BME280;23035;50.032;21.978;2023-04-01T13:39:41;66694.88;;;14.53;100.00
37132;BME280;23035;50.032;21.978;2023-04-01T13:44:51;66939.72;;;16.80;87.01
37132;BME280;23035;50.032;21.978;2023-04-01T13:55:58;67122.53;;;18.52;78.70
37132;BME280;23035;50.032;21.978;2023-04-01T14:01:13;66995.25;;;17.32;84.36
37132;BME280;23035;50.032;21.978;2023-04-01T14:06:28;66918.09;;;16.57;87.53
37132;BME280;23035;50.032;21.978;2023-04-01T14:11:41;67008.78;;;17.47;83.62
37132;BME280;23035;50.032;21.978;2023-04-01T14:17:14;66956.44;;;16.96;86.37
37132;BME280;23035;50.032;21.978;2023-04-01T14:22:27;66916.47;;;16.55;91.94
37132;BME280;23035;50.032;21.978;2023-04-01T14:27:45;66863.22;;;16.08;95.56
37132;BME280;23035;50.032;21.978;2023-04-01T14:32:57;66751.38;;;15.07;100.00
37132;BME280;23035;50.032;21.978;2023-04-01T14:38:20;66803.41;;;15.51;100.00
37132;BME280;23035;50.032;21.978;2023-04-01T14:49:13;66673.25;;;14.30;100.00
37132;BME280;23035;50.032;21.978;2023-04-01T14:54:21;66699.19;;;14.57;100.00
37132;BME280;23035;50.032;21.978;2023-04-01T14:59:39;66566.72;;;13.27;100.00
37132;BME280;23035;50.032;21.978;2023-04-01T15:04:50;66570.56;;;13.33;100.00
37132;BME280;23035;50.032;21.978;2023-04-01T15:10:01;66638.84;;;13.98;100.00
37132;BME280;23035;50.032;21.978;2023-04-01T15:15:21;66583.47;;;13.45;100.00
37132;BME280;23035;50.032;21.978;2023-04-01T15:26:20;66631.25;;;13.88;100.00
37132;BME280;23035;50.032;21.978;2023-04-01T15:31:31;66564.56;;;13.25;100.00
37132;BME280;23035;50.032;21.978;2023-04-01T15:36:42;66537.16;;;12.99;100.00
37132;BME280;23035;50.032;21.978;2023-04-01T15:47:37;66515.75;;;12.81;100.00
37132;BME280;23035;50.032;21.978;2023-04-01T15:52:44;66564.19;;;13.30;100.00
37132;BME280;23035;50.032;21.978;2023-04-01T15:58:16;66592.59;;;13.54;100.00
37132;BME280;23035;50.032;21.978;2023-04-01T16:03:35;66468.84;;;12.32;100.00
37132;BME280;23035;50.032;21.978;2023-04-01T16:08:54;66559.88;;;13.26;100.00
37132;BME280;23035;50.032;21.978;2023-04-01T16:14:14;66477.06;;;12.45;100.00
37132;BME280;23035;50.032;21.978;2023-04-01T16:19:41;66441.00;;;12.08;100.00
37132;BME280;23035;50.032;21.978;2023-04-01T16:24:51;66408.41;;;11.82;100.00
37132;BME280;23035;50.032;21.978;2023-04-01T16:30:03;66392.66;;;11.62;100.00
37132;BME280;23035;50.032;21.978;2023-04-01T16:35:30;66421.31;;;11.94;100.00
37132;BME280;23035;50.032;21.978;2023-04-01T16:40:47;66322.38;;;10.96;100.00
37132;BME280;23035;50.032;21.978;2023-04-01T16:46:14;66351.34;;;11.23;100.00
37132;BME280;23035;50.032;21.978;2023-04-01T16:51:24;66352.50;;;11.27;100.00
37132;BME280;23035;50.032;21.978;2023-04-01T16:56:28;66373.50;;;11.49;100.00
37132;BME280;23035;50.032;21.978;2023-04-01T17:01:44;66340.16;;;11.15;100.00
37132;BME280;23035;50.032;21.978;2023-04-01T17:07:03;66293.47;;;10.71;100.00
37132;BME280;23035;50.032;21.978;2023-04-01T17:12:14;66296.16;;;10.73;100.00
37132;BME280;23035;50.032;21.978;2023-04-01T17:17:31;66297.25;;;10.74;100.00
37132;BME280;23035;50.032;21.978;2023-04-01T17:22:45;66299.91;;;10.77;100.00
37132;BME280;23035;50.032;21.978;2023-04-01T17:27:54;66228.56;;;10.09;100.00
37132;BME280;23035;50.032;21.978;2023-04-01T17:33:18;66264.97;;;10.41;100.00
37132;BME280;23035;50.032;21.978;2023-04-01T17:38:45;66199.53;;;9.79;100.00
37132;BME280;23035;50.032;21.978;2023-04-01T17:44:01;66218.31;;;9.97;100.00
37132;BME280;23035;50.032;21.978;2023-04-01T17:49:21;66210.88;;;9.92;100.00
37132;BME280;23035;50.032;21.978;2023-04-01T17:54:38;66196.50;;;9.81;100.00
37132;BME280;23035;50.032;21.978;2023-04-01T17:59:53;66097.75;;;8.82;100.00
37132;BME280;23035;50.032;21.978;2023-04-01T18:05:05;66115.50;;;9.02;100.00
37132;BME280;23035;50.032;21.978;2023-04-01T18:10:28;66065.00;;;8.49;100.00
37132;BME280;23035;50.032;21.978;2023-04-01T18:15:40;66076.84;;;8.62;100.00
37132;BME280;23035;50.032;21.978;2023-04-01T18:20:54;66070.97;;;8.57;100.00
37132;BME280;23035;50.032;21.978;2023-04-01T18:26:06;66056.41;;;8.41;100.00
37132;BME280;23035;50.032;21.978;2023-04-01T18:31:15;66072.66;;;8.61;100.00
37132;BME280;23035;50.032;21.978;2023-04-01T18:36:26;66061.34;;;8.48;100.00
37132;BME280;23035;50.032;21.978;2023-04-01T18:41:49;66068.28;;;8.54;100.00
37132;BME280;23035;50.032;21.978;2023-04-01T18:47:05;66086.84;;;8.67;100.00
37132;BME280;23035;50.032;21.978;2023-04-01T18:52:17;66052.22;;;8.39;100.00
37132;BME280;23035;50.032;21.978;2023-04-01T18:57:48;66041.59;;;8.31;100.00
37132;BME280;23035;50.032;21.978;2023-04-01T19:03:00;66021.25;;;8.12;100.00
37132;BME280;23035;50.032;21.978;2023-04-01T19:08:18;65999.38;;;7.94;100.00
37132;BME280;23035;50.032;21.978;2023-04-01T19:13:29;66011.00;;;8.00;100.00
37132;BME280;23035;50.032;21.978;2023-04-01T19:18:49;65980.94;;;7.69;100.00
37132;BME280;23035;50.032;21.978;2023-04-01T19:24:12;65998.25;;;7.90;100.00
37132;BME280;23035;50.032;21.978;2023-04-01T19:29:35;66025.34;;;8.11;100.00
37132;BME280;23035;50.032;21.978;2023-04-01T19:34:53;65967.19;;;7.61;100.00
37132;BME280;23035;50.032;21.978;2023-04-01T19:40:07;65984.22;;;7.74;100.00
37132;BME280;23035;50.032;21.978;2023-04-01T19:45:30;65972.91;;;7.61;100.00
37132;BME280;23035;50.032;21.978;2023-04-01T19:50:42;66058.66;;;8.45;100.00
37132;BME280;23035;50.032;21.978;2023-04-01T19:55:57;66055.34;;;8.40;100.00
37132;BME280;23035;50.032;21.978;2023-04-01T20:01:06;66089.69;;;8.75;100.00
37132;BME280;23035;50.032;21.978;2023-04-01T20:06:22;66064.00;;;8.50;100.00
37132;BME280;23035;50.032;21.978;2023-04-01T20:11:42;66111.69;;;8.96;100.00
37132;BME280;23035;50.032;21.978;2023-04-01T20:16:57;66053.84;;;8.41;100.00
37132;BME280;23035;50.032;21.978;2023-04-01T20:22:08;66046.53;;;8.39;100.00
37132;BME280;23035;50.032;21.978;2023-04-01T20:27:18;66105.25;;;8.89;100.00
37132;BME280;23035;50.032;21.978;2023-04-01T20:32:43;66103.81;;;8.93;100.00
37132;BME280;23035;50.032;21.978;2023-04-01T20:37:54;66071.13;;;8.62;100.00
37132;BME280;23035;50.032;21.978;2023-04-01T20:43:23;66066.06;;;8.50;100.00
37132;BME280;23035;50.032;21.978;2023-04-01T20:48:59;66080.16;;;8.68;100.00
37132;BME280;23035;50.032;21.978;2023-04-01T20:54:27;66080.25;;;8.71;100.00
37132;BME280;23035;50.032;21.978;2023-04-01T20:59:51;66084.69;;;8.65;100.00
37132;BME280;23035;50.032;21.978;2023-04-01T21:10:54;66085.97;;;8.71;100.00
37132;BME280;23035;50.032;21.978;2023-04-01T21:16:14;66095.53;;;8.78;100.00
37132;BME280;23035;50.032;21.978;2023-04-01T21:27:15;66062.50;;;8.51;100.00
37132;BME280;23035;50.032;21.978;2023-04-01T21:32:41;66077.50;;;8.66;100.00
37132;BME280;23035;50.032;21.978;2023-04-01T21:37:58;66096.59;;;8.79;100.00
37132;BME280;23035;50.032;21.978;2023-04-01T21:43:16;66071.06;;;8.59;100.00
37132;BME280;23035;50.032;21.978;2023-04-01T21:48:41;66124.69;;;9.13;100.00
37132;BME280;23035;50.032;21.978;2023-04-01T21:54:13;66084.28;;;8.67;100.00
37132;BME280;23035;50.032;21.978;2023-04-01T22:05:06;66092.47;;;8.80;100.00
37132;BME280;23035;50.032;21.978;2023-04-01T22:10:22;66070.97;;;8.57;100.00
37132;BME280;23035;50.032;21.978;2023-04-01T22:15:49;66096.22;;;8.83;100.00
37132;BME280;23035;50.032;21.978;2023-04-01T22:21:04;66086.50;;;8.72;100.00
37132;BME280;23035;50.032;21.978;2023-04-01T22:26:17;66062.56;;;8.54;100.00
37132;BME280;23035;50.032;21.978;2023-04-01T22:31:26;66062.41;;;8.49;100.00
37132;BME280;23035;50.032;21.978;2023-04-01T22:36:40;66082.50;;;8.75;100.00
37132;BME280;23035;50.032;21.978;2023-04-01T22:41:59;66049.09;;;8.39;100.00
37132;BME280;23035;50.032;21.978;2023-04-01T22:47:08;66115.88;;;8.97;100.00
37132;BME280;23035;50.032;21.978;2023-04-01T22:52:23;66075.25;;;8.61;100.00
37132;BME280;23035;50.032;21.978;2023-04-01T22:57:41;66052.75;;;8.40;100.00
37132;BME280;23035;50.032;21.978;2023-04-01T23:03:01;66050.63;;;8.38;100.00
37132;BME280;23035;50.032;21.978;2023-04-01T23:08:40;66059.63;;;8.44;100.00
37132;BME280;23035;50.032;21.978;2023-04-01T23:13:52;66064.09;;;8.53;100.00
37132;BME280;23035;50.032;21.978;2023-04-01T23:19:01;66105.25;;;8.89;100.00
37132;BME280;23035;50.032;21.978;2023-04-01T23:24:15;66094.53;;;8.79;100.00
37132;BME280;23035;50.032;21.978;2023-04-01T23:29:24;66110.59;;;8.95;100.00
37132;BME280;23035;50.032;21.978;2023-04-01T23:34:30;66105.06;;;8.84;100.00
37132;BME280;23035;50.032;21.978;2023-04-01T23:39:38;66109.53;;;8.94;100.00
37132;BME280;23035;50.032;21.978;2023-04-01T23:44:43;66082.75;;;8.68;100.00
37132;BME280;23035;50.032;21.978;2023-04-01T23:49:50;66085.25;;;8.66;100.00
37132;BME280;23035;50.032;21.978;2023-04-01T23:55:00;66126.66;;;9.10;100.00
